Time;durP1;ratioP1;P1;durP2;ratioP2;P2;SDS_P1;SDS_P2;PMS_P1;PMS_P2;Temp;Humidity;BMP_temperature;BMP_pressure;BME280_temperature;BME280_humidity;BME280_pressure;Samples;Min_cycle;Max_cycle;Signal;HPM_P1;HPM_P2
2021/10/02 00:01:49;;;;;;;278.77;263.00;;;15.00;99.90;;;;;;4970452;28;20207;-76
2021/10/02 00:34:45;;;;;;;291.35;274.77;;;14.80;99.90;;;;;;4997045;28;20239;-76
2021/10/02 00:37:28;;;;;;;303.90;286.17;;;14.80;99.90;;;;;;5040501;28;20203;-76
2021/10/02 00:45:26;;;;;;;330.80;311.15;;;14.90;99.90;;;;;;5021948;28;20230;-76
2021/10/02 00:47:58;;;;;;;303.67;286.02;;;14.90;99.90;;;;;;5102995;28;20261;-76
2021/10/02 00:50:26;;;;;;;301.48;284.33;;;14.90;99.90;;;;;;5108640;28;20201;-76
2021/10/02 00:52:53;;;;;;;306.25;288.65;;;14.80;99.90;;;;;;5106608;28;20205;-76
2021/10/02 00:55:20;;;;;;;310.13;291.88;;;14.80;99.90;;;;;;5092604;28;20211;-76
2021/10/02 00:57:47;;;;;;;272.67;257.25;;;14.80;99.90;;;;;;5088522;28;20207;-77
2021/10/02 01:00:14;;;;;;;275.20;259.73;;;14.80;99.90;;;;;;5089153;28;20232;-76
2021/10/02 01:02:51;;;;;;;268.38;253.48;;;14.90;99.90;;;;;;5088861;28;20278;-76
2021/10/02 01:05:44;;;;;;;317.73;299.35;;;14.90;99.90;;;;;;5089084;28;20202;-77
2021/10/02 01:08:29;;;;;;;262.35;247.40;;;14.90;99.90;;;;;;5090013;28;20262;-76
2021/10/02 01:11:09;;;;;;;254.30;240.05;;;14.90;99.90;;;;;;5088796;28;20197;-77
2021/10/02 01:13:42;;;;;;;289.65;273.27;;;14.90;99.90;;;;;;5093837;28;20211;-76
2021/10/02 01:16:14;;;;;;;303.88;286.00;;;14.90;99.90;;;;;;5094853;28;20207;-76
2021/10/02 01:18:46;;;;;;;276.80;260.95;;;15.00;99.90;;;;;;5088549;28;20210;-76
2021/10/02 01:21:38;;;;;;;302.80;285.38;;;15.00;99.90;;;;;;5088317;28;20712;-76
2021/10/02 01:24:18;;;;;;;277.20;261.23;;;15.10;99.90;;;;;;5089147;28;20226;-76
2021/10/02 01:27:07;;;;;;;297.10;280.17;;;15.10;99.90;;;;;;5088746;28;20228;-76
2021/10/02 01:29:38;;;;;;;263.58;248.85;;;15.20;99.90;;;;;;5088110;28;20212;-76
2021/10/02 01:32:13;;;;;;;279.45;263.13;;;15.20;99.90;;;;;;5088598;28;20211;-77
2021/10/02 01:34:53;;;;;;;267.83;252.00;;;15.10;99.90;;;;;;5095433;28;20234;-76
2021/10/02 01:37:27;;;;;;;203.23;191.88;;;15.00;99.90;;;;;;5090546;28;20214;-76
2021/10/02 01:48:16;;;;;;;306.58;288.55;;;15.10;99.90;;;;;;5097348;28;20206;-76
2021/10/02 01:50:44;;;;;;;278.83;263.13;;;15.20;99.90;;;;;;5092479;28;20646;-76
2021/10/02 01:53:12;;;;;;;248.55;234.43;;;15.30;99.90;;;;;;5088318;28;20232;-76
2021/10/02 01:55:40;;;;;;;320.20;301.35;;;15.30;99.90;;;;;;5088122;28;20204;-76
2021/10/02 01:58:11;;;;;;;297.35;280.20;;;15.40;99.90;;;;;;5090384;28;20207;-76
2021/10/02 02:00:42;;;;;;;253.95;240.18;;;15.30;99.90;;;;;;5094362;28;20180;-76
2021/10/02 02:03:12;;;;;;;278.95;263.08;;;15.30;99.90;;;;;;5094196;28;20230;-76
2021/10/02 02:05:40;;;;;;;301.48;284.15;;;15.30;99.90;;;;;;5101995;28;20206;-76
2021/10/02 02:08:11;;;;;;;66.40;62.33;;;15.40;99.90;;;;;;5075743;28;20292;-76
2021/10/02 02:10:40;;;;;;;300.33;283.15;;;15.40;99.90;;;;;;5087787;28;20230;-76
2021/10/02 02:13:08;;;;;;;313.48;295.10;;;15.50;99.90;;;;;;5090908;28;20207;-77
2021/10/02 02:15:36;;;;;;;265.85;250.68;;;15.60;99.90;;;;;;5092649;28;20236;-76
2021/10/02 02:18:06;;;;;;;282.52;266.30;;;15.60;99.90;;;;;;5087422;28;20261;-76
2021/10/02 02:20:35;;;;;;;268.02;253.13;;;15.60;99.90;;;;;;5091065;28;20198;-76
2021/10/02 02:23:03;;;;;;;238.88;226.13;;;15.70;99.90;;;;;;5093158;28;20259;-76
2021/10/02 02:25:30;;;;;;;242.57;229.10;;;15.70;99.90;;;;;;5087861;28;20196;-76
2021/10/02 02:27:58;;;;;;;276.23;260.98;;;15.70;99.90;;;;;;5086951;28;20196;-76
2021/10/02 02:30:25;;;;;;;302.27;284.73;;;15.80;99.90;;;;;;5094796;28;20195;-76
2021/10/02 02:32:53;;;;;;;265.95;251.55;;;15.80;99.90;;;;;;5087891;28;20199;-76
2021/10/02 02:35:23;;;;;;;213.80;202.65;;;15.70;99.90;;;;;;5096314;28;20227;-76
2021/10/02 02:37:51;;;;;;;28.55;26.77;;;15.70;99.90;;;;;;5087850;28;20205;-76
2021/10/02 02:40:18;;;;;;;13.60;12.40;;;15.60;99.90;;;;;;5093756;28;20211;-76
2021/10/02 02:42:46;;;;;;;9.57;8.88;;;15.60;99.90;;;;;;5091564;28;20241;-76
2021/10/02 02:45:15;;;;;;;238.70;225.75;;;15.60;99.90;;;;;;5086875;28;20525;-76
2021/10/02 02:47:48;;;;;;;125.80;119.43;;;15.60;99.90;;;;;;5091202;28;20232;-76
2021/10/02 02:50:25;;;;;;;249.15;235.60;;;15.60;99.90;;;;;;5086718;28;20210;-76
2021/10/02 02:52:59;;;;;;;204.23;193.52;;;15.50;99.90;;;;;;5086329;28;20211;-77
2021/10/02 02:55:28;;;;;;;226.93;214.40;;;15.50;99.90;;;;;;5086787;28;20203;-76
2021/10/02 02:57:58;;;;;;;247.57;233.90;;;15.50;99.90;;;;;;5086605;28;20207;-76
2021/10/02 03:00:25;;;;;;;266.70;251.68;;;15.50;99.90;;;;;;5091915;28;20245;-77
2021/10/02 03:02:55;;;;;;;249.95;236.43;;;15.50;99.90;;;;;;5086418;28;20223;-76
2021/10/02 03:05:40;;;;;;;289.33;273.08;;;15.60;99.90;;;;;;5086373;28;20203;-77
2021/10/02 03:08:11;;;;;;;143.48;136.40;;;15.60;99.90;;;;;;5086676;28;20205;-77
2021/10/02 03:10:40;;;;;;;200.55;190.20;;;15.60;99.90;;;;;;5086639;28;20210;-77
2021/10/02 03:13:12;;;;;;;5.55;5.22;;;15.60;99.90;;;;;;5086573;28;20210;-76
2021/10/02 03:15:42;;;;;;;6.03;4.07;;;15.60;99.90;;;;;;5095002;28;20573;-77
2021/10/02 03:18:10;;;;;;;16.85;15.88;;;15.60;99.90;;;;;;5085943;28;20208;-77
2021/10/02 03:20:38;;;;;;;4.22;2.97;;;15.60;99.90;;;;;;5093048;28;20207;-77
2021/10/02 03:23:08;;;;;;;3.55;2.63;;;15.70;99.90;;;;;;5086274;28;20753;-77
2021/10/02 03:25:35;;;;;;;3.15;2.60;;;15.60;99.90;;;;;;5086887;28;20203;-76
2021/10/02 03:28:05;;;;;;;8.15;4.35;;;15.70;99.90;;;;;;5090331;28;20210;-77
2021/10/02 03:30:33;;;;;;;201.63;191.15;;;15.60;99.90;;;;;;5086787;28;20204;-77
2021/10/02 03:33:00;;;;;;;239.80;227.35;;;15.60;99.90;;;;;;5085876;28;20650;-76
2021/10/02 03:35:27;;;;;;;157.77;149.82;;;15.50;99.90;;;;;;5085917;28;20208;-77
2021/10/02 03:37:54;;;;;;;8.13;7.60;;;15.50;99.90;;;;;;5086150;28;20202;-76
2021/10/02 03:40:24;;;;;;;5.20;3.40;;;15.50;99.90;;;;;;5088314;28;20568;-76
2021/10/02 03:42:53;;;;;;;5.60;5.07;;;15.40;99.90;;;;;;5090170;28;20287;-76
2021/10/02 03:45:24;;;;;;;8.70;4.50;;;15.50;99.90;;;;;;5086099;28;20240;-76
2021/10/02 03:47:51;;;;;;;5.60;4.13;;;15.50;99.90;;;;;;5092700;28;20233;-77
2021/10/02 03:50:18;;;;;;;6.10;5.15;;;15.50;99.90;;;;;;5085086;28;20213;-76
2021/10/02 03:52:45;;;;;;;4.70;4.28;;;15.50;99.90;;;;;;5101332;28;20264;-76
2021/10/02 03:55:15;;;;;;;7.65;3.95;;;15.50;99.90;;;;;;5091417;28;20206;-76
2021/10/02 03:57:43;;;;;;;5.75;3.13;;;15.50;99.90;;;;;;5091927;28;20207;-77
2021/10/02 04:00:12;;;;;;;4.75;3.42;;;15.50;99.90;;;;;;5085493;28;20202;-76
2021/10/02 04:05:27;;;;;;;9.07;4.22;;;15.50;99.90;;;;;;5087863;28;20201;-76
2021/10/02 04:13:26;;;;;;;32.45;30.00;;;15.50;99.90;;;;;;5085374;28;20732;-76
2021/10/02 04:18:42;;;;;;;3.95;3.55;;;15.40;99.90;;;;;;5094726;28;20203;-77
2021/10/02 04:29:27;;;;;;;4.70;3.70;;;15.40;99.90;;;;;;5092533;28;20202;-76
2021/10/02 04:31:54;;;;;;;10.20;9.50;;;15.40;99.90;;;;;;5093927;28;20715;-76
2021/10/02 04:34:21;;;;;;;11.35;4.03;;;15.40;99.90;;;;;;5089626;28;20205;-76
2021/10/02 04:36:48;;;;;;;5.13;3.47;;;15.40;99.90;;;;;;5089079;28;20226;-76
2021/10/02 04:39:15;;;;;;;4.93;4.47;;;15.50;99.90;;;;;;5089347;28;20625;-76
2021/10/02 04:41:50;;;;;;;17.20;15.95;;;15.50;99.90;;;;;;5094783;28;20278;-76
2021/10/02 04:49:47;;;;;;;9.45;4.43;;;15.60;99.90;;;;;;5087926;28;20552;-76
2021/10/02 05:03:01;;;;;;;8.65;5.78;;;15.40;99.90;;;;;;5088622;28;20214;-76
2021/10/02 05:13:39;;;;;;;9.23;8.27;;;15.60;99.90;;;;;;5088525;28;20228;-76
2021/10/02 05:16:06;;;;;;;21.05;19.85;;;15.50;99.90;;;;;;5088080;28;20206;-76
2021/10/02 05:18:34;;;;;;;8.95;6.68;;;15.50;99.90;;;;;;5089115;28;20215;-75
2021/10/02 05:21:01;;;;;;;12.90;5.90;;;15.40;99.90;;;;;;5092033;28;20202;-76
2021/10/02 05:23:28;;;;;;;10.80;9.88;;;15.30;99.90;;;;;;5093993;28;20253;-76
2021/10/02 05:25:56;;;;;;;7.07;5.55;;;15.20;99.90;;;;;;5098534;28;20203;-76
2021/10/02 05:28:24;;;;;;;10.05;9.05;;;15.20;99.90;;;;;;5095407;28;20207;-76
2021/10/02 05:30:51;;;;;;;6.90;6.28;;;15.20;99.90;;;;;;5095351;28;20230;-77
2021/10/02 05:33:18;;;;;;;7.82;4.88;;;15.20;99.90;;;;;;5087498;28;20222;-75
2021/10/02 05:35:48;;;;;;;9.43;7.63;;;15.20;99.90;;;;;;5092080;28;20227;-77
2021/10/02 05:38:19;;;;;;;9.05;8.15;;;15.20;99.90;;;;;;5091671;28;20291;-76
2021/10/02 05:40:47;;;;;;;6.60;5.50;;;15.20;99.90;;;;;;5103675;28;20512;-76
2021/10/02 05:43:14;;;;;;;6.72;5.63;;;15.30;99.90;;;;;;5087913;28;20303;-76
2021/10/02 05:45:41;;;;;;;11.15;5.97;;;15.40;99.90;;;;;;5088224;28;20232;-76
2021/10/02 05:48:08;;;;;;;8.43;7.28;;;15.30;99.90;;;;;;5087714;28;20212;-76
2021/10/02 05:50:35;;;;;;;9.65;6.03;;;15.40;99.90;;;;;;5087697;28;20203;-76
2021/10/02 05:53:03;;;;;;;12.60;10.13;;;15.30;99.90;;;;;;5087944;28;20268;-76
2021/10/02 05:55:32;;;;;;;8.82;8.02;;;15.40;99.90;;;;;;5087854;28;20201;-76
2021/10/02 05:57:59;;;;;;;5.90;5.35;;;15.30;99.90;;;;;;5090992;28;20196;-76
2021/10/02 06:00:26;;;;;;;7.18;6.40;;;15.30;99.90;;;;;;5087913;28;20568;-75
2021/10/02 06:02:53;;;;;;;6.95;6.35;;;15.30;99.90;;;;;;5087679;28;20208;-76
2021/10/02 06:05:26;;;;;;;10.60;9.85;;;15.20;99.90;;;;;;5087178;28;20235;-76
2021/10/02 06:07:53;;;;;;;5.60;5.00;;;15.30;99.90;;;;;;5091547;28;20198;-75
2021/10/02 06:10:21;;;;;;;6.60;5.38;;;15.30;99.90;;;;;;5087241;28;20210;-76
2021/10/02 06:12:52;;;;;;;8.30;5.75;;;15.20;99.90;;;;;;5091233;28;20202;-76
2021/10/02 06:15:20;;;;;;;7.13;5.40;;;15.20;99.90;;;;;;5086714;28;20203;-76
2021/10/02 06:17:47;;;;;;;15.00;13.73;;;15.10;99.90;;;;;;5093876;28;20210;-76
2021/10/02 06:20:15;;;;;;;12.82;11.85;;;15.20;99.90;;;;;;5090510;28;20193;-76
2021/10/02 06:22:42;;;;;;;6.93;5.18;;;15.20;99.90;;;;;;5087087;28;20230;-76
2021/10/02 06:25:10;;;;;;;7.53;4.95;;;15.20;99.90;;;;;;5087456;28;20227;-75
2021/10/02 06:30:20;;;;;;;9.88;8.88;;;15.20;99.90;;;;;;5089598;28;20218;-75
2021/10/02 06:32:48;;;;;;;10.60;9.80;;;15.20;99.90;;;;;;5088627;28;20233;-76
2021/10/02 06:35:15;;;;;;;17.92;16.60;;;15.10;99.90;;;;;;5091887;28;20202;-76
2021/10/02 06:37:44;;;;;;;5.32;4.80;;;15.10;99.90;;;;;;5093612;28;20213;-76
2021/10/02 06:40:11;;;;;;;9.32;5.75;;;15.20;99.90;;;;;;5091344;28;20214;-76
2021/10/02 06:42:41;;;;;;;8.25;7.45;;;15.10;99.90;;;;;;5091279;28;20235;-75
2021/10/02 06:45:09;;;;;;;10.45;9.45;;;15.20;99.90;;;;;;5092009;28;20259;-76
2021/10/02 06:47:36;;;;;;;12.40;11.60;;;15.20;99.90;;;;;;5087460;28;20234;-76
2021/10/02 06:50:05;;;;;;;7.82;6.78;;;15.20;99.90;;;;;;5087408;28;20661;-76
2021/10/02 06:52:32;;;;;;;8.88;7.30;;;15.20;99.90;;;;;;5086677;28;20200;-76
2021/10/02 06:55:00;;;;;;;299.35;282.60;;;15.10;99.90;;;;;;5068415;28;20263;-77
2021/10/02 06:57:27;;;;;;;17.70;15.52;;;15.20;99.90;;;;;;5092411;28;20205;-76
2021/10/02 06:59:55;;;;;;;11.40;10.45;;;15.20;99.90;;;;;;5086098;28;20195;-76
2021/10/02 07:02:22;;;;;;;27.27;25.33;;;15.30;99.90;;;;;;5091103;28;20207;-76
2021/10/02 07:04:50;;;;;;;13.93;12.93;;;15.30;99.90;;;;;;5089427;28;20233;-76
2021/10/02 07:07:18;;;;;;;22.33;20.50;;;15.30;99.90;;;;;;5092197;28;20214;-76
2021/10/02 07:09:45;;;;;;;20.67;19.52;;;15.30;99.90;;;;;;5086473;28;20293;-76
2021/10/02 07:12:12;;;;;;;13.65;12.52;;;15.40;99.90;;;;;;5086058;28;20199;-76
2021/10/02 07:14:39;;;;;;;9.38;8.77;;;15.40;99.90;;;;;;5097593;28;20207;-76
2021/10/02 07:17:10;;;;;;;11.32;7.60;;;15.40;99.90;;;;;;5093522;28;20199;-76
2021/10/02 07:19:37;;;;;;;11.45;10.50;;;15.50;99.90;;;;;;5085769;28;20200;-76
2021/10/02 07:22:04;;;;;;;7.90;7.20;;;15.50;99.90;;;;;;5093298;28;20232;-76
2021/10/02 07:24:31;;;;;;;13.23;11.20;;;15.50;99.90;;;;;;5098937;28;20282;-77
2021/10/02 07:26:59;;;;;;;7.15;6.30;;;15.70;99.90;;;;;;5089799;28;20200;-76
2021/10/02 07:29:26;;;;;;;10.13;7.13;;;15.70;99.90;;;;;;5093150;28;20200;-76
2021/10/02 07:31:53;;;;;;;11.75;10.75;;;15.70;99.90;;;;;;5091239;28;20222;-76
2021/10/02 07:34:21;;;;;;;8.43;4.97;;;15.70;99.90;;;;;;5085699;28;20680;-76
2021/10/02 07:36:49;;;;;;;12.98;11.68;;;15.70;99.90;;;;;;5086504;28;20207;-76
2021/10/02 07:39:16;;;;;;;4.82;4.43;;;15.70;99.90;;;;;;5085570;28;20296;-76
2021/10/02 07:41:46;;;;;;;7.32;6.63;;;15.80;99.90;;;;;;5090184;28;20229;-76
2021/10/02 07:44:14;;;;;;;9.18;8.68;;;15.90;99.90;;;;;;5092467;28;20291;-76
2021/10/02 07:46:48;;;;;;;80.13;76.40;;;15.80;99.90;;;;;;5089253;28;20202;-76
2021/10/02 07:49:16;;;;;;;75.82;72.10;;;15.90;99.90;;;;;;5071663;28;20206;-76
2021/10/02 07:51:45;;;;;;;38.80;36.83;;;15.90;99.90;;;;;;5088870;28;20205;-76
2021/10/02 07:54:13;;;;;;;6.53;6.10;;;15.90;99.90;;;;;;5090006;28;20213;-76
2021/10/02 07:56:42;;;;;;;9.95;9.25;;;15.90;99.90;;;;;;5085934;28;20215;-76
2021/10/02 07:59:09;;;;;;;6.55;4.20;;;16.00;99.90;;;;;;5096998;28;20212;-76
2021/10/02 08:01:37;;;;;;;13.60;12.65;;;16.10;99.90;;;;;;5091274;28;20257;-76
2021/10/02 08:04:04;;;;;;;5.13;4.63;;;16.20;99.90;;;;;;5091965;28;20233;-77
2021/10/02 08:06:33;;;;;;;6.88;6.30;;;16.30;99.90;;;;;;5089893;28;20206;-76
2021/10/02 08:09:03;;;;;;;5.00;3.75;;;16.30;99.90;;;;;;5090169;28;20225;-76
2021/10/02 08:11:31;;;;;;;25.63;24.35;;;16.40;99.90;;;;;;5090948;28;20198;-76
2021/10/02 08:13:58;;;;;;;12.10;11.27;;;16.40;99.90;;;;;;5089649;28;20198;-76
2021/10/02 08:21:55;;;;;;;15.43;14.27;;;16.40;99.90;;;;;;5088736;28;20195;-77
2021/10/02 08:24:26;;;;;;;13.07;12.18;;;16.40;99.90;;;;;;5094378;28;20288;-76
2021/10/02 08:26:54;;;;;;;13.15;12.23;;;16.40;99.90;;;;;;5090128;28;20226;-77
2021/10/02 08:29:23;;;;;;;7.20;6.70;;;16.50;99.90;;;;;;5089910;28;20206;-76
2021/10/02 08:31:50;;;;;;;5.25;4.43;;;16.50;99.90;;;;;;5089941;28;20207;-76
2021/10/02 08:34:17;;;;;;;19.20;18.15;;;16.60;99.90;;;;;;5090854;28;22064;-77
2021/10/02 08:36:44;;;;;;;4.47;4.18;;;16.70;99.90;;;;;;5091618;28;20718;-77
2021/10/02 08:39:11;;;;;;;12.93;12.13;;;16.70;99.90;;;;;;5100720;28;20207;-76
2021/10/02 08:41:41;;;;;;;17.33;16.40;;;16.80;99.90;;;;;;5095337;28;20202;-76
2021/10/02 08:44:10;;;;;;;5.40;5.10;;;17.00;99.90;;;;;;5093823;28;20245;-76
2021/10/02 08:46:38;;;;;;;11.07;10.48;;;17.00;99.90;;;;;;5102270;28;20255;-76
2021/10/02 08:49:28;;;;;;;7.38;6.97;;;17.10;99.90;;;;;;5093286;28;20207;-76
2021/10/02 08:51:56;;;;;;;16.67;15.70;;;17.20;99.90;;;;;;5087980;28;20202;-77
2021/10/02 08:54:23;;;;;;;9.00;8.30;;;17.30;99.90;;;;;;5089438;28;20203;-76
2021/10/02 08:56:53;;;;;;;7.30;6.70;;;17.40;99.90;;;;;;5088381;28;20202;-76
2021/10/02 08:59:21;;;;;;;17.23;16.17;;;17.50;99.90;;;;;;5089968;28;20647;-76
2021/10/02 09:01:49;;;;;;;6.70;6.30;;;17.60;99.90;;;;;;5092845;28;20203;-76
2021/10/02 09:04:17;;;;;;;250.25;236.98;;;17.50;99.90;;;;;;5089190;28;20218;-77
2021/10/02 09:06:45;;;;;;;266.38;251.93;;;17.50;99.90;;;;;;5093433;28;20198;-77
2021/10/02 09:09:11;;;;;;;194.75;184.50;;;17.60;99.90;;;;;;5089227;28;20228;-76
2021/10/02 09:11:38;;;;;;;262.23;247.98;;;17.60;99.90;;;;;;5089470;28;20849;-76
2021/10/02 09:14:10;;;;;;;261.45;247.35;;;17.70;99.90;;;;;;5094907;28;20314;-76
2021/10/02 09:16:39;;;;;;;5.57;5.28;;;17.90;99.90;;;;;;5099462;28;20260;-76
2021/10/02 09:19:08;;;;;;;21.40;20.33;;;18.00;99.90;;;;;;5090374;28;20210;-76
2021/10/02 09:21:43;;;;;;;57.92;55.22;;;18.00;99.90;;;;;;5093502;28;20198;-76
2021/10/02 09:24:21;;;;;;;2.00;1.90;;;17.90;99.90;;;;;;5089242;28;20225;-76
2021/10/02 09:26:48;;;;;;;2.67;2.47;;;17.90;99.90;;;;;;5090762;28;20259;-77
2021/10/02 09:29:17;;;;;;;2.20;2.05;;;17.70;99.90;;;;;;5104286;28;20231;-76
2021/10/02 09:31:45;;;;;;;2.53;2.33;;;17.70;99.90;;;;;;5089261;28;20207;-77
2021/10/02 09:34:23;;;;;;;2.63;2.53;;;17.60;99.90;;;;;;5095735;28;20205;-76
2021/10/02 09:36:50;;;;;;;7.53;7.07;;;17.60;99.90;;;;;;5088044;28;20222;-77
2021/10/02 09:39:18;;;;;;;7.05;6.63;;;17.50;99.90;;;;;;5088986;28;20214;-76
2021/10/02 09:41:50;;;;;;;37.90;35.90;;;17.50;99.90;;;;;;5100311;28;20257;-77
2021/10/02 09:44:26;;;;;;;7.40;3.15;;;17.60;99.90;;;;;;5099170;28;20226;-76
2021/10/02 09:46:53;;;;;;;3.15;2.08;;;17.60;99.90;;;;;;5087700;28;20207;-76
2021/10/02 09:49:21;;;;;;;2.42;2.22;;;17.80;99.90;;;;;;5089135;28;20296;-76
2021/10/02 09:51:47;;;;;;;2.45;2.35;;;17.80;99.90;;;;;;5093126;28;20198;-77
2021/10/02 09:54:37;;;;;;;2.20;2.10;;;17.80;99.90;;;;;;5090699;28;20307;-76
2021/10/02 09:57:11;;;;;;;2.83;2.50;;;17.70;99.90;;;;;;5091102;28;20203;-76
2021/10/02 09:59:41;;;;;;;2.47;2.35;;;17.70;99.90;;;;;;5089309;28;20203;-76
2021/10/02 10:05:06;;;;;;;13.95;13.25;;;17.60;99.90;;;;;;5108585;27;20592;-76
2021/10/02 10:07:33;;;;;;;13.68;12.93;;;17.50;99.90;;;;;;5096919;28;20204;-76
2021/10/02 10:10:03;;;;;;;4.25;3.95;;;17.40;99.90;;;;;;5097319;28;20202;-76
2021/10/02 10:12:31;;;;;;;8.88;8.48;;;17.40;99.90;;;;;;5098172;28;20201;-76
2021/10/02 10:14:58;;;;;;;10.32;9.88;;;17.40;99.90;;;;;;5099152;28;20203;-76
2021/10/02 10:17:29;;;;;;;12.13;11.52;;;17.40;99.90;;;;;;5098171;28;20203;-76
2021/10/02 10:20:07;;;;;;;10.25;9.60;;;17.40;99.90;;;;;;5086833;28;20294;-76
2021/10/02 10:22:35;;;;;;;7.03;6.35;;;17.30;99.90;;;;;;5090157;28;20202;-76
2021/10/02 10:25:09;;;;;;;14.52;13.65;;;17.40;99.90;;;;;;5090510;28;20225;-75
2021/10/02 10:27:39;;;;;;;11.10;7.97;;;17.40;99.90;;;;;;5085679;28;20201;-76
2021/10/02 10:30:13;;;;;;;10.02;9.52;;;17.50;99.90;;;;;;5084187;28;20203;-76
2021/10/02 10:32:54;;;;;;;5.93;5.53;;;17.60;99.90;;;;;;5091487;28;20534;-76
2021/10/02 10:35:24;;;;;;;12.63;11.95;;;17.70;99.90;;;;;;5089535;28;20206;-76
2021/10/02 10:37:51;;;;;;;17.15;16.27;;;17.80;99.90;;;;;;5103207;28;20215;-76
2021/10/02 10:40:18;;;;;;;18.15;16.73;;;17.90;99.90;;;;;;5091363;28;20262;-76
2021/10/02 10:42:46;;;;;;;14.05;13.23;;;17.90;99.90;;;;;;5085320;28;20207;-76
2021/10/02 10:45:14;;;;;;;8.00;7.50;;;17.90;99.90;;;;;;5094031;28;20205;-76
2021/10/02 10:47:42;;;;;;;11.93;11.05;;;17.90;99.90;;;;;;5086148;28;20206;-76
2021/10/02 10:50:09;;;;;;;15.63;14.90;;;17.90;99.90;;;;;;5085895;28;20230;-76
2021/10/02 10:52:40;;;;;;;8.93;8.23;;;17.80;99.90;;;;;;5106128;28;20284;-76
2021/10/02 10:55:13;;;;;;;21.08;20.02;;;17.90;99.90;;;;;;5090015;28;20249;-76
2021/10/02 10:57:43;;;;;;;27.95;26.52;;;17.80;99.90;;;;;;5097166;28;20612;-76
2021/10/02 11:00:14;;;;;;;24.30;23.20;;;17.80;99.90;;;;;;5090575;28;20202;-76
2021/10/02 11:02:46;;;;;;;21.08;19.85;;;17.80;99.90;;;;;;5091920;28;20214;-76
2021/10/02 11:05:51;;;;;;;28.05;26.80;;;17.80;99.90;;;;;;5087521;28;20207;-77
2021/10/02 11:08:59;;;;;;;20.55;19.33;;;17.80;99.90;;;;;;5095351;28;20233;-75
2021/10/02 11:11:56;;;;;;;23.45;22.13;;;17.80;99.90;;;;;;5090183;28;20230;-76
2021/10/02 11:14:25;;;;;;;21.65;20.33;;;17.80;99.90;;;;;;5086081;28;20209;-76
2021/10/02 11:17:02;;;;;;;24.33;23.08;;;17.90;99.90;;;;;;5077857;28;20229;-76
2021/10/02 11:19:35;;;;;;;31.67;29.85;;;18.00;99.90;;;;;;5075598;28;20195;-76
2021/10/02 11:22:35;;;;;;;10.27;9.77;;;18.10;99.90;;;;;;5077703;28;20234;-76
2021/10/02 11:25:17;;;;;;;26.95;25.60;;;18.10;99.90;;;;;;5050210;28;20277;-76
2021/10/02 11:27:44;;;;;;;31.83;30.25;;;18.10;99.90;;;;;;5080173;28;20215;-76
2021/10/02 11:30:13;;;;;;;22.00;20.90;;;18.10;99.90;;;;;;5079010;28;20225;-76
2021/10/02 11:32:41;;;;;;;13.57;12.77;;;18.20;99.90;;;;;;5074894;28;20207;-76
2021/10/02 11:35:30;;;;;;;13.82;13.15;;;18.20;99.90;;;;;;5091032;28;20199;-76
2021/10/02 11:38:03;;;;;;;5.75;5.30;;;18.40;99.90;;;;;;5071682;28;20666;-77
2021/10/02 11:40:50;;;;;;;4.53;4.25;;;18.40;99.90;;;;;;5075815;28;20261;-77
2021/10/02 11:43:23;;;;;;;14.25;13.60;;;18.60;99.90;;;;;;5076652;28;20228;-76
2021/10/02 11:46:11;;;;;;;26.88;25.67;;;18.70;99.90;;;;;;5079195;28;20204;-76
2021/10/02 11:48:44;;;;;;;23.92;22.70;;;18.60;99.90;;;;;;5082715;28;20199;-76
2021/10/02 11:51:29;;;;;;;5.43;5.03;;;18.60;99.90;;;;;;5084665;28;20225;-76
2021/10/02 11:54:00;;;;;;;13.57;12.88;;;18.60;99.90;;;;;;5078629;28;20202;-76
2021/10/02 11:56:30;;;;;;;18.40;17.40;;;18.60;99.90;;;;;;5077157;28;20202;-76
2021/10/02 11:58:59;;;;;;;4.32;4.03;;;18.60;99.90;;;;;;5077069;28;20246;-77
2021/10/02 12:01:29;;;;;;;11.45;10.85;;;18.60;99.90;;;;;;5071952;28;20285;-77
2021/10/02 12:04:02;;;;;;;37.97;35.80;;;18.70;99.90;;;;;;5070391;28;20240;-76
2021/10/02 12:06:30;;;;;;;364.70;342.33;;;18.70;99.90;;;;;;5076294;28;20256;-77
2021/10/02 12:08:58;;;;;;;385.90;361.65;;;18.80;99.90;;;;;;5081738;28;20236;-76
2021/10/02 12:11:26;;;;;;;365.63;343.10;;;18.80;99.90;;;;;;5081791;28;20229;-76
2021/10/02 12:13:58;;;;;;;388.83;364.15;;;18.80;99.90;;;;;;5071248;28;20286;-76
2021/10/02 12:16:27;;;;;;;299.88;283.02;;;18.80;99.90;;;;;;5079979;28;20208;-76
2021/10/02 12:19:00;;;;;;;323.17;304.20;;;18.80;99.90;;;;;;5073951;28;20223;-76
2021/10/02 12:21:41;;;;;;;354.50;332.92;;;18.80;99.90;;;;;;5084860;28;20202;-76
2021/10/02 12:24:14;;;;;;;328.88;309.48;;;18.90;99.90;;;;;;5086451;28;20241;-77
2021/10/02 12:26:50;;;;;;;354.35;332.80;;;18.90;99.90;;;;;;5072767;28;20601;-77
2021/10/02 12:29:21;;;;;;;339.35;319.02;;;18.90;99.90;;;;;;5081084;28;20244;-76
2021/10/02 12:31:56;;;;;;;365.48;342.92;;;18.90;99.90;;;;;;5081040;28;20258;-77
2021/10/02 12:34:24;;;;;;;360.17;338.23;;;18.70;99.90;;;;;;5076035;28;20233;-76
2021/10/02 12:36:56;;;;;;;357.92;336.15;;;18.60;99.90;;;;;;5079971;28;20233;-76
2021/10/02 12:39:28;;;;;;;60.10;57.38;;;18.60;99.90;;;;;;5082684;28;20208;-75
2021/10/02 12:41:57;;;;;;;60.80;57.75;;;18.60;99.90;;;;;;5076030;28;20206;-76
2021/10/02 12:44:28;;;;;;;20.13;18.85;;;18.70;99.90;;;;;;5079672;28;20226;-76
2021/10/02 12:46:56;;;;;;;14.40;13.60;;;18.80;99.90;;;;;;5072032;28;20203;-76
2021/10/02 12:49:25;;;;;;;5.40;5.00;;;18.90;99.90;;;;;;5081751;28;20228;-76
2021/10/02 12:51:53;;;;;;;9.15;5.20;;;18.90;99.90;;;;;;5078240;28;20203;-76
2021/10/02 12:54:25;;;;;;;3.65;3.55;;;18.90;99.90;;;;;;5079766;28;20203;-76
2021/10/02 12:56:57;;;;;;;4.80;4.50;;;19.00;99.90;;;;;;5074390;28;20209;-76
2021/10/02 12:59:39;;;;;;;3.45;3.25;;;19.00;99.90;;;;;;5083683;28;20204;-76
2021/10/02 13:02:07;;;;;;;298.90;281.92;;;18.90;99.90;;;;;;5066837;28;20204;-76
2021/10/02 13:04:35;;;;;;;329.40;310.00;;;18.90;99.90;;;;;;5066893;28;20253;-76
2021/10/02 13:07:04;;;;;;;308.48;290.92;;;18.80;99.90;;;;;;5066832;28;20216;-76
2021/10/02 13:09:31;;;;;;;317.67;299.25;;;18.90;99.90;;;;;;5073904;28;20227;-75
2021/10/02 13:12:06;;;;;;;268.33;253.77;;;18.90;99.90;;;;;;5073667;28;20207;-76
2021/10/02 13:14:37;;;;;;;279.98;264.63;;;18.80;99.90;;;;;;5078174;28;20267;-76
2021/10/02 13:17:07;;;;;;;337.27;316.95;;;18.70;99.90;;;;;;5070566;28;20207;-76
2021/10/02 13:19:34;;;;;;;326.67;307.38;;;18.60;99.90;;;;;;5071842;28;20208;-77
2021/10/02 13:22:13;;;;;;;346.70;325.88;;;18.60;99.90;;;;;;5076304;28;20203;-76
2021/10/02 13:24:41;;;;;;;325.30;306.10;;;18.60;99.90;;;;;;5074839;28;20654;-77
2021/10/02 13:27:10;;;;;;;325.70;306.50;;;18.60;99.90;;;;;;5087622;28;20187;-77
2021/10/02 13:29:40;;;;;;;377.40;353.77;;;18.60;99.90;;;;;;5075766;28;20647;-76
2021/10/02 13:32:17;;;;;;;379.77;356.00;;;18.60;99.90;;;;;;5089400;28;20303;-76
2021/10/02 13:34:53;;;;;;;343.05;322.35;;;18.60;99.90;;;;;;5081378;28;20232;-75
2021/10/02 13:37:24;;;;;;;386.75;362.15;;;18.60;99.90;;;;;;5068767;28;20204;-76
2021/10/02 13:39:52;;;;;;;343.85;323.05;;;18.60;99.90;;;;;;5068115;28;20559;-76
2021/10/02 13:42:21;;;;;;;365.45;342.95;;;18.60;99.90;;;;;;5066835;28;20204;-76
2021/10/02 13:44:55;;;;;;;365.40;342.80;;;18.70;99.90;;;;;;5084223;28;20265;-76
2021/10/02 13:47:23;;;;;;;377.23;353.55;;;18.60;99.90;;;;;;5086472;28;20208;-76
2021/10/02 13:49:51;;;;;;;180.07;169.73;;;18.70;99.90;;;;;;5086034;28;20203;-76
2021/10/02 13:52:19;;;;;;;9.55;9.02;;;18.70;99.90;;;;;;5080497;28;20209;-76
2021/10/02 13:54:47;;;;;;;5.78;5.32;;;18.60;99.90;;;;;;5070273;28;20258;-76
2021/10/02 13:57:14;;;;;;;8.32;7.90;;;18.60;99.90;;;;;;5085246;28;20249;-76
2021/10/02 13:59:41;;;;;;;16.65;15.70;;;18.60;99.90;;;;;;5075643;28;20206;-76
2021/10/02 14:02:10;;;;;;;9.23;8.63;;;18.60;99.90;;;;;;5071731;28;20210;-76
2021/10/02 14:04:37;;;;;;;16.02;15.35;;;18.60;99.90;;;;;;5078952;28;20236;-76
2021/10/02 14:07:05;;;;;;;21.90;20.83;;;18.60;99.90;;;;;;5088359;28;20210;-76
2021/10/02 14:09:33;;;;;;;5.13;4.82;;;18.60;99.90;;;;;;5076768;28;20238;-76
2021/10/02 14:12:00;;;;;;;295.35;278.75;;;18.60;99.90;;;;;;5074373;28;20199;-75
2021/10/02 14:14:28;;;;;;;232.55;220.35;;;18.60;99.90;;;;;;5067677;28;20203;-75
2021/10/02 14:16:56;;;;;;;389.15;364.45;;;18.60;99.90;;;;;;5083069;28;20229;-76
2021/10/02 14:19:25;;;;;;;357.38;335.40;;;18.60;99.90;;;;;;5073779;28;20728;-75
2021/10/02 14:21:52;;;;;;;360.40;338.33;;;18.50;99.90;;;;;;5081150;28;20259;-75
2021/10/02 14:24:19;;;;;;;374.33;351.10;;;18.50;99.90;;;;;;5076854;28;20269;-76